createdAt,value
2023-01-27T00:01:41.923Z,2.63
2023-01-27T00:04:12.033Z,2.10
2023-01-27T00:06:40.641Z,2.50
2023-01-27T00:09:09.118Z,2.63
2023-01-27T00:11:55.091Z,3.17
2023-01-27T00:14:24.489Z,1.93
2023-01-27T00:16:53.483Z,2.80
2023-01-27T00:19:23.563Z,2.53
2023-01-27T00:22:09.658Z,3.47
2023-01-27T00:24:38.303Z,3.00
2023-01-27T00:27:09.478Z,2.73
2023-01-27T00:29:41.087Z,3.50
2023-01-27T00:32:27.119Z,2.90
2023-01-27T00:34:57.127Z,3.17
2023-01-27T00:37:25.668Z,3.43
2023-01-27T00:39:54.197Z,2.70
2023-01-27T00:42:22.764Z,3.30
2023-01-27T00:45:05.453Z,3.37
2023-01-27T00:47:34.317Z,3.47
2023-01-27T00:50:05.225Z,3.03
2023-01-27T00:52:33.954Z,3.63
2023-01-27T00:55:03.562Z,2.53
2023-01-27T00:57:32.177Z,3.37
2023-01-27T01:00:00.850Z,3.53
2023-01-27T01:02:29.491Z,4.10
2023-01-27T01:04:58.144Z,4.10
2023-01-27T01:07:28.300Z,4.63
2023-01-27T01:09:56.882Z,3.73
2023-01-27T01:12:25.633Z,4.70
2023-01-27T01:14:54.572Z,3.77
2023-01-27T01:17:24.001Z,4.23
2023-01-27T01:19:52.611Z,4.10
2023-01-27T01:22:21.172Z,3.93
2023-01-27T01:24:51.132Z,3.87
2023-01-27T01:27:19.777Z,4.73
2023-01-27T01:29:48.335Z,4.17
2023-01-27T01:32:17.093Z,5.40
2023-01-27T01:34:45.667Z,4.73
2023-01-27T01:37:14.322Z,4.13
2023-01-27T01:39:43.240Z,4.57
2023-01-27T01:42:13.250Z,4.30
2023-01-27T01:44:45.434Z,5.50
2023-01-27T01:47:17.740Z,4.83
2023-01-27T01:49:48.093Z,4.00
2023-01-27T01:52:22.053Z,4.73
2023-01-27T01:54:54.802Z,4.67
2023-01-27T01:57:34.275Z,4.97
2023-01-27T02:00:07.767Z,4.77
2023-01-27T02:02:49.031Z,4.40
2023-01-27T02:05:24.487Z,5.07
2023-01-27T02:07:59.044Z,5.23
2023-01-27T02:10:27.694Z,5.00
2023-01-27T02:12:57.621Z,5.80
2023-01-27T02:15:26.348Z,4.67
2023-01-27T02:17:55.078Z,4.20
2023-01-27T02:20:29.398Z,5.37
2023-01-27T02:23:05.900Z,4.20
2023-01-27T02:25:51.915Z,4.83
2023-01-27T02:28:20.793Z,5.63
2023-01-27T02:30:49.588Z,5.40
2023-01-27T02:33:18.372Z,4.43
2023-01-27T02:35:56.048Z,4.87
2023-01-27T02:38:25.483Z,4.93
2023-01-27T02:40:58.949Z,5.40
2023-01-27T02:43:28.255Z,4.97
2023-01-27T02:45:56.931Z,5.33
2023-01-27T02:48:26.446Z,5.70
2023-01-27T02:50:55.055Z,4.53
2023-01-27T02:53:23.993Z,5.90
2023-01-27T02:55:52.682Z,5.60
2023-01-27T02:58:22.643Z,5.23
2023-01-27T03:00:59.101Z,6.43
2023-01-27T03:03:28.036Z,5.53
2023-01-27T03:05:56.929Z,5.73
2023-01-27T03:08:25.556Z,6.10
2023-01-27T03:10:55.612Z,6.17
2023-01-27T03:13:28.115Z,6.87
2023-01-27T03:16:17.902Z,7.10
2023-01-27T03:18:49.611Z,6.87
2023-01-27T03:21:20.705Z,7.23
2023-01-27T03:23:50.145Z,6.97
2023-01-27T03:26:23.317Z,6.60
2023-01-27T03:29:11.785Z,7.57
2023-01-27T03:31:43.584Z,6.53
2023-01-27T03:34:12.847Z,6.37
2023-01-27T03:37:10.715Z,6.27
2023-01-27T03:39:56.800Z,6.77
2023-01-27T03:42:43.179Z,6.23
2023-01-27T03:45:31.436Z,6.93
2023-01-27T03:48:00.461Z,6.20
2023-01-27T03:50:37.650Z,7.10
2023-01-27T03:53:07.078Z,6.47
2023-01-27T03:55:37.543Z,6.20
2023-01-27T03:58:18.496Z,6.47
2023-01-27T04:00:52.241Z,5.83
2023-01-27T04:03:39.017Z,6.87
2023-01-27T04:06:26.624Z,5.73
2023-01-27T04:08:55.671Z,6.47
2023-01-27T04:11:43.097Z,4.67
2023-01-27T04:14:13.341Z,5.13
2023-01-27T04:16:43.703Z,5.60
2023-01-27T04:19:13.410Z,5.30
2023-01-27T04:21:43.574Z,5.37
2023-01-27T04:24:23.425Z,5.33
2023-01-27T04:26:55.328Z,4.73
2023-01-27T04:29:26.214Z,4.17
2023-01-27T04:31:57.816Z,4.63
2023-01-27T04:34:27.201Z,4.47
2023-01-27T04:36:56.376Z,4.73
2023-01-27T04:39:25.350Z,4.50
2023-01-27T04:41:54.255Z,4.30
2023-01-27T04:44:23.034Z,4.57
2023-01-27T04:46:52.127Z,4.10
2023-01-27T04:49:22.419Z,4.57
2023-01-27T04:51:50.992Z,4.47
2023-01-27T04:54:19.879Z,3.63
2023-01-27T04:56:57.186Z,3.97
2023-01-27T04:59:26.079Z,3.73
2023-01-27T05:01:55.032Z,4.07
2023-01-27T05:04:26.542Z,3.50
2023-01-27T05:06:55.375Z,3.13
2023-01-27T05:09:24.301Z,3.27
2023-01-27T05:11:52.958Z,2.87
2023-01-27T05:14:23.505Z,3.20
2023-01-27T05:16:52.413Z,3.40
2023-01-27T05:19:21.228Z,2.50
2023-01-27T05:21:51.214Z,3.00
2023-01-27T05:24:19.820Z,3.03
2023-01-27T05:26:48.702Z,3.03
2023-01-27T05:29:17.323Z,3.53
2023-01-27T05:31:46.053Z,2.87
2023-01-27T05:34:14.730Z,2.73
2023-01-27T05:36:43.312Z,2.77
2023-01-27T05:39:13.545Z,3.00
2023-01-27T05:41:42.542Z,2.80
2023-01-27T05:44:13.092Z,3.20
2023-01-27T05:46:42.827Z,2.90
2023-01-27T05:49:11.397Z,2.90
2023-01-27T05:51:40.833Z,2.83
2023-01-27T05:54:10.421Z,2.50
2023-01-27T05:56:40.654Z,2.60
2023-01-27T05:59:11.007Z,2.90
2023-01-27T06:01:39.861Z,2.80
2023-01-27T06:04:08.515Z,2.90
2023-01-27T06:06:37.184Z,2.90
2023-01-27T06:09:05.837Z,2.90
2023-01-27T06:11:34.296Z,2.53
2023-01-27T06:14:04.401Z,2.90
2023-01-27T06:16:32.955Z,3.20
2023-01-27T06:19:01.761Z,2.57
2023-01-27T06:21:30.372Z,2.60
2023-01-27T06:23:59.151Z,3.00
2023-01-27T06:26:27.711Z,2.97
2023-01-27T06:28:57.977Z,2.33
2023-01-27T06:31:28.390Z,2.37
2023-01-27T06:33:57.143Z,2.63
2023-01-27T06:36:25.717Z,2.50
2023-01-27T06:38:54.293Z,2.40
2023-01-27T06:41:22.876Z,2.37
2023-01-27T06:43:51.438Z,2.33
2023-01-27T06:46:20.152Z,2.67
2023-01-27T06:48:50.130Z,2.00
2023-01-27T06:51:18.739Z,2.30
2023-01-27T06:53:47.340Z,1.97
2023-01-27T06:56:17.470Z,1.83
2023-01-27T06:58:46.125Z,2.13
2023-01-27T07:01:14.862Z,2.00
2023-01-27T07:03:44.788Z,2.53
2023-01-27T07:06:16.322Z,2.17
2023-01-27T07:08:46.965Z,1.80
2023-01-27T07:11:15.600Z,2.30
2023-01-27T07:13:45.052Z,2.10
2023-01-27T07:16:13.669Z,2.50
2023-01-27T07:18:42.290Z,2.10
2023-01-27T07:21:11.049Z,1.90
2023-01-27T07:23:41.090Z,2.17
2023-01-27T07:26:23.199Z,1.70
2023-01-27T07:28:53.728Z,2.20
2023-01-27T07:31:22.643Z,2.60
2023-01-27T07:33:51.276Z,2.23
2023-01-27T07:36:20.086Z,1.87
2023-01-27T07:38:52.237Z,2.37
2023-01-27T07:41:22.950Z,2.17
2023-01-27T07:43:52.485Z,1.80
2023-01-27T07:46:21.568Z,2.50
2023-01-27T07:48:50.237Z,2.37
2023-01-27T07:51:18.841Z,2.13
2023-01-27T07:53:47.405Z,1.90
2023-01-27T07:56:17.297Z,2.47
2023-01-27T07:58:45.729Z,2.43
2023-01-27T08:01:14.586Z,2.40
2023-01-27T08:03:43.248Z,2.33
2023-01-27T08:06:13.656Z,2.27
2023-01-27T08:08:42.131Z,2.33
2023-01-27T08:11:13.659Z,2.23
2023-01-27T08:13:44.127Z,2.10
2023-01-27T08:16:14.623Z,2.07
2023-01-27T08:18:43.232Z,1.83
2023-01-27T08:21:13.078Z,1.97
2023-01-27T08:23:41.594Z,1.83
2023-01-27T08:26:10.028Z,1.50
2023-01-27T08:28:40.163Z,2.00
2023-01-27T08:31:12.551Z,2.37
2023-01-27T08:33:42.507Z,1.93
2023-01-27T08:36:13.188Z,2.10
2023-01-27T08:38:42.518Z,1.90
2023-01-27T08:41:13.260Z,1.93
2023-01-27T08:43:42.288Z,1.93
2023-01-27T08:46:12.420Z,1.93
2023-01-27T08:48:41.078Z,2.00
2023-01-27T08:51:10.640Z,1.87
2023-01-27T08:53:39.129Z,1.73
2023-01-27T08:56:09.479Z,1.77
2023-01-27T08:58:38.014Z,1.73
2023-01-27T09:01:07.866Z,1.40
2023-01-27T09:03:38.308Z,1.67
2023-01-27T09:06:09.702Z,1.70
2023-01-27T09:08:38.388Z,1.60
2023-01-27T09:11:11.731Z,1.40
2023-01-27T09:13:40.308Z,1.70
2023-01-27T09:16:09.908Z,1.70
2023-01-27T09:18:39.748Z,1.50
2023-01-27T09:21:08.412Z,1.60
2023-01-27T09:23:36.820Z,2.10
2023-01-27T09:26:05.490Z,1.60
2023-01-27T09:28:33.913Z,1.63
2023-01-27T09:31:02.527Z,2.20
2023-01-27T09:33:31.016Z,2.07
2023-01-27T09:36:02.802Z,1.80
2023-01-27T09:38:34.298Z,1.57
2023-01-27T09:41:29.787Z,1.77
2023-01-27T09:44:17.779Z,1.90
2023-01-27T09:47:04.421Z,1.67
2023-01-27T09:49:46.411Z,1.47
2023-01-27T09:52:47.536Z,1.90
2023-01-27T09:55:22.954Z,2.00
2023-01-27T09:58:01.948Z,1.70
2023-01-27T10:00:43.262Z,1.67
2023-01-27T10:03:27.105Z,1.60
2023-01-27T10:06:17.025Z,1.87
2023-01-27T10:09:06.502Z,2.20
2023-01-27T10:11:42.204Z,2.33
2023-01-27T10:14:23.485Z,1.70
2023-01-27T10:17:13.337Z,1.70
2023-01-27T10:19:52.108Z,1.90
2023-01-27T10:22:28.456Z,1.73
2023-01-27T10:25:09.686Z,2.33
2023-01-27T10:27:39.297Z,1.67
2023-01-27T10:30:15.170Z,1.90
2023-01-27T10:32:46.719Z,2.30
2023-01-27T10:35:20.719Z,2.10
2023-01-27T10:38:01.625Z,1.93
2023-01-27T10:40:38.836Z,2.33
2023-01-27T10:43:13.470Z,1.63
2023-01-27T10:45:48.768Z,2.00
2023-01-27T10:48:31.031Z,2.37
2023-01-27T10:51:04.269Z,1.70
2023-01-27T10:53:39.497Z,2.07
2023-01-27T10:56:13.214Z,2.03
2023-01-27T10:58:51.314Z,2.20
2023-01-27T11:01:26.569Z,2.57
2023-01-27T11:03:58.604Z,2.17
2023-01-27T11:06:31.643Z,2.50
2023-01-27T11:09:08.534Z,2.27
2023-01-27T11:11:49.186Z,1.77
2023-01-27T11:14:23.716Z,2.03
2023-01-27T11:16:54.371Z,2.40
2023-01-27T11:19:36.284Z,2.60
2023-01-27T11:22:11.479Z,2.20
2023-01-27T11:24:46.409Z,2.23
2023-01-27T11:27:32.441Z,2.47
2023-01-27T11:30:07.655Z,2.33
2023-01-27T11:32:44.024Z,1.97
2023-01-27T11:35:14.433Z,2.00
2023-01-27T11:37:45.152Z,2.37
2023-01-27T11:40:19.599Z,2.23
2023-01-27T11:42:51.761Z,2.20
2023-01-27T11:45:21.898Z,2.50
2023-01-27T11:47:55.177Z,2.27
2023-01-27T11:50:25.711Z,1.97
2023-01-27T11:53:00.656Z,1.93
2023-01-27T11:55:36.314Z,2.50
2023-01-27T11:58:20.488Z,2.10
2023-01-27T12:00:53.835Z,2.87
2023-01-27T12:03:29.245Z,2.70
2023-01-27T12:06:02.060Z,4.60
2023-01-27T12:08:39.037Z,4.20
2023-01-27T12:11:25.090Z,4.73
2023-01-27T12:13:57.609Z,3.60
2023-01-27T12:16:33.737Z,3.30
2023-01-27T12:19:05.364Z,2.80
2023-01-27T12:21:45.506Z,2.80
2023-01-27T12:24:29.069Z,2.33
2023-01-27T12:26:58.932Z,2.93
2023-01-27T12:29:36.963Z,2.67
2023-01-27T12:32:13.447Z,1.97
2023-01-27T12:34:46.853Z,2.73
2023-01-27T12:37:23.367Z,2.00
2023-01-27T12:39:57.074Z,1.70
2023-01-27T12:42:37.625Z,2.50
2023-01-27T12:45:29.381Z,2.00
2023-01-27T12:48:01.110Z,2.40
2023-01-27T12:50:32.280Z,1.70
2023-01-27T12:53:13.850Z,1.73
2023-01-27T12:55:45.297Z,1.77
2023-01-27T12:58:31.213Z,1.93
2023-01-27T13:01:03.292Z,2.20
2023-01-27T13:03:32.387Z,2.10
2023-01-27T13:06:01.512Z,2.13
2023-01-27T13:08:34.540Z,2.23
2023-01-27T13:11:04.955Z,1.93
2023-01-27T13:13:34.520Z,1.83
2023-01-27T13:16:09.451Z,2.07
2023-01-27T13:18:40.822Z,1.77
2023-01-27T13:21:15.200Z,1.63
2023-01-27T13:23:43.954Z,2.00
2023-01-27T13:26:18.360Z,1.60
2023-01-27T13:28:53.605Z,1.80
2023-01-27T13:31:35.146Z,1.67
2023-01-27T13:34:09.763Z,1.67
2023-01-27T13:36:43.287Z,2.30
2023-01-27T13:39:19.397Z,1.43
2023-01-27T13:41:54.052Z,1.90
2023-01-27T13:44:28.627Z,1.40
2023-01-27T13:47:04.647Z,1.97
2023-01-27T13:49:37.471Z,2.10
2023-01-27T13:52:07.232Z,1.73
2023-01-27T13:54:35.814Z,1.80
2023-01-27T13:57:21.422Z,1.77
2023-01-27T14:00:00.086Z,1.73
2023-01-27T14:02:43.489Z,1.93
2023-01-27T14:05:39.557Z,1.70
2023-01-27T14:08:21.785Z,1.97
2023-01-27T14:11:05.927Z,1.90
2023-01-27T14:13:46.769Z,1.97
2023-01-27T14:16:22.282Z,1.60
2023-01-27T14:19:01.473Z,1.70
2023-01-27T14:21:44.561Z,1.73
2023-01-27T14:24:25.811Z,1.83
2023-01-27T14:27:01.993Z,1.60
2023-01-27T14:29:40.327Z,1.90
2023-01-27T14:32:20.249Z,1.90
2023-01-27T14:35:05.492Z,1.40
2023-01-27T14:37:45.480Z,1.70
2023-01-27T14:40:19.645Z,2.27
2023-01-27T14:43:05.520Z,1.60
2023-01-27T14:45:36.935Z,2.00
2023-01-27T14:48:15.521Z,2.00
2023-01-27T14:50:53.362Z,2.10
2023-01-27T14:53:44.804Z,2.10
2023-01-27T14:56:24.902Z,2.20
2023-01-27T14:58:59.340Z,1.93
2023-01-27T15:01:40.186Z,2.13
2023-01-27T15:04:30.952Z,2.17
2023-01-27T15:07:07.917Z,2.47
2023-01-27T15:09:50.835Z,1.97
2023-01-27T15:12:49.407Z,1.80
2023-01-27T15:15:44.181Z,1.77
2023-01-27T15:18:37.231Z,2.13
2023-01-27T15:21:30.968Z,2.17
2023-01-27T15:24:28.925Z,1.80
2023-01-27T15:26:58.246Z,2.10
2023-01-27T15:29:28.537Z,2.27
2023-01-27T15:32:23.035Z,2.53
2023-01-27T15:34:54.414Z,2.40
2023-01-27T15:37:24.720Z,2.60
2023-01-27T15:40:11.628Z,2.57
2023-01-27T15:42:53.320Z,2.73
2023-01-27T15:45:30.444Z,2.50
2023-01-27T15:48:02.118Z,2.77
2023-01-27T15:50:33.195Z,3.17
2023-01-27T15:53:06.915Z,2.03
2023-01-27T15:55:47.967Z,2.40
2023-01-27T15:58:28.456Z,2.83
2023-01-27T16:00:59.248Z,2.40
2023-01-27T16:03:32.340Z,2.83
2023-01-27T16:06:08.953Z,2.30
2023-01-27T16:08:42.604Z,2.27
2023-01-27T16:11:39.109Z,2.20
2023-01-27T16:14:26.886Z,2.97
2023-01-27T16:17:24.869Z,2.73
2023-01-27T16:20:20.789Z,2.43
2023-01-27T16:22:52.228Z,2.83
2023-01-27T16:25:27.669Z,2.50
2023-01-27T16:28:04.043Z,2.87
2023-01-27T16:30:36.720Z,2.80
2023-01-27T16:33:08.514Z,2.60
2023-01-27T16:35:43.949Z,3.47
2023-01-27T16:38:25.419Z,2.60
2023-01-27T16:40:57.084Z,2.93
2023-01-27T16:43:32.636Z,2.63
2023-01-27T16:46:02.719Z,2.63
2023-01-27T16:48:37.295Z,2.83
2023-01-27T16:51:14.444Z,3.27
2023-01-27T16:53:47.244Z,2.97
2023-01-27T16:56:22.306Z,3.00
2023-01-27T16:58:53.022Z,3.03
2023-01-27T17:01:25.946Z,3.23
2023-01-27T17:04:00.692Z,3.67
2023-01-27T17:06:32.435Z,2.63
2023-01-27T17:09:02.587Z,3.03
2023-01-27T17:11:32.936Z,2.60
2023-01-27T17:14:04.218Z,2.40
2023-01-27T17:16:35.538Z,2.50
2023-01-27T17:19:09.751Z,2.60
2023-01-27T17:21:41.588Z,2.30
2023-01-27T17:24:17.454Z,2.37
2023-01-27T17:26:49.457Z,2.37
2023-01-27T17:29:22.709Z,1.97
2023-01-27T17:31:52.080Z,2.30
2023-01-27T17:34:22.801Z,2.17
2023-01-27T17:37:15.295Z,2.60
2023-01-27T17:39:44.912Z,2.47
2023-01-27T17:42:18.064Z,2.70
2023-01-27T17:44:50.479Z,2.13
2023-01-27T17:47:20.792Z,2.17
2023-01-27T17:49:50.891Z,2.37
2023-01-27T17:52:21.962Z,2.73
2023-01-27T17:54:51.443Z,2.30
2023-01-27T17:57:22.868Z,2.70
2023-01-27T17:59:59.227Z,2.17
2023-01-27T18:02:29.886Z,2.97
2023-01-27T18:05:01.421Z,2.77
2023-01-27T18:07:30.013Z,2.70
2023-01-27T18:09:58.647Z,2.70
2023-01-27T18:12:33.051Z,2.40
2023-01-27T18:15:33.431Z,2.60
2023-01-27T18:18:02.857Z,2.00
2023-01-27T18:20:33.549Z,3.23
2023-01-27T18:23:03.794Z,1.90
2023-01-27T18:25:32.461Z,3.00
2023-01-27T18:28:01.480Z,3.33
2023-01-27T18:30:32.090Z,2.80
2023-01-27T18:33:03.891Z,2.63
2023-01-27T18:35:34.271Z,2.43
2023-01-27T18:38:04.838Z,2.50
2023-01-27T18:40:34.956Z,3.10
2023-01-27T18:43:05.484Z,1.97
2023-01-27T18:45:35.317Z,2.07
2023-01-27T18:48:03.869Z,2.27
2023-01-27T18:50:32.405Z,2.27
2023-01-27T18:53:01.252Z,2.90
2023-01-27T18:55:31.188Z,2.60
2023-01-27T18:58:01.245Z,2.60
2023-01-27T19:00:34.822Z,2.23
2023-01-27T19:03:08.648Z,2.73
2023-01-27T19:05:37.496Z,2.70
2023-01-27T19:08:06.457Z,2.87
2023-01-27T19:10:36.082Z,2.17
2023-01-27T19:13:05.707Z,2.60
2023-01-27T19:15:35.966Z,2.43
2023-01-27T19:18:13.654Z,2.50
2023-01-27T19:20:42.134Z,2.80
2023-01-27T19:23:14.041Z,3.00
2023-01-27T19:25:43.301Z,3.23
2023-01-27T19:28:17.593Z,3.23
2023-01-27T19:30:46.683Z,2.93
2023-01-27T19:33:21.869Z,2.77
2023-01-27T19:35:54.183Z,2.87
2023-01-27T19:38:23.622Z,3.17
2023-01-27T19:40:52.087Z,2.93
2023-01-27T19:43:20.861Z,3.50
2023-01-27T19:45:50.899Z,3.33
2023-01-27T19:48:22.451Z,3.40
2023-01-27T19:50:52.062Z,3.63
2023-01-27T19:53:21.088Z,2.83
2023-01-27T19:55:50.200Z,3.40
2023-01-27T19:58:24.722Z,3.10
2023-01-27T20:00:54.167Z,2.90
2023-01-27T20:03:24.513Z,3.03
2023-01-27T20:05:53.502Z,4.00
2023-01-27T20:08:23.001Z,3.13
2023-01-27T20:10:52.260Z,3.40
2023-01-27T20:13:22.216Z,3.50
2023-01-27T20:15:52.347Z,3.67
2023-01-27T20:18:22.889Z,2.73
2023-01-27T20:20:53.696Z,3.60
2023-01-27T20:23:22.159Z,3.87
2023-01-27T20:25:50.619Z,3.70
2023-01-27T20:28:19.088Z,4.00
2023-01-27T20:30:47.585Z,3.57
2023-01-27T20:33:16.122Z,3.57
2023-01-27T20:35:44.588Z,4.00
2023-01-27T20:38:14.388Z,3.77
2023-01-27T20:40:43.121Z,4.27
2023-01-27T20:43:11.600Z,4.20
2023-01-27T20:45:40.861Z,4.43
2023-01-27T20:48:11.629Z,3.83
2023-01-27T20:50:40.044Z,4.07
2023-01-27T20:53:08.498Z,4.40
2023-01-27T20:55:38.283Z,4.50
2023-01-27T20:58:06.787Z,4.57
2023-01-27T21:00:35.213Z,4.43
2023-01-27T21:03:04.243Z,4.67
2023-01-27T21:05:34.346Z,4.47
2023-01-27T21:08:02.874Z,4.50
2023-01-27T21:10:31.348Z,3.97
2023-01-27T21:13:01.204Z,4.43
2023-01-27T21:15:30.409Z,5.07
2023-01-27T21:18:00.034Z,4.93
2023-01-27T21:20:28.616Z,4.37
2023-01-27T21:22:57.107Z,4.60
2023-01-27T21:25:25.789Z,4.33
2023-01-27T21:27:54.269Z,4.00
2023-01-27T21:30:25.643Z,4.07
2023-01-27T21:32:54.129Z,4.93
2023-01-27T21:35:22.888Z,4.00
2023-01-27T21:37:51.438Z,4.80
2023-01-27T21:40:20.070Z,3.93
2023-01-27T21:43:05.804Z,4.40
2023-01-27T21:45:35.596Z,4.53
2023-01-27T21:48:04.119Z,4.77
2023-01-27T21:50:32.864Z,4.33
2023-01-27T21:53:01.429Z,4.57
2023-01-27T21:55:31.046Z,4.57
2023-01-27T21:57:59.536Z,4.73
2023-01-27T22:00:30.152Z,4.77
2023-01-27T22:03:01.776Z,5.20
2023-01-27T22:05:31.735Z,5.00
2023-01-27T22:08:01.614Z,4.40
2023-01-27T22:10:31.305Z,4.47
2023-01-27T22:13:01.253Z,4.20
2023-01-27T22:15:29.782Z,5.17
2023-01-27T22:18:00.532Z,4.80
2023-01-27T22:20:29.506Z,4.47
2023-01-27T22:22:58.060Z,4.60
2023-01-27T22:25:27.201Z,4.57
2023-01-27T22:27:56.511Z,5.63
2023-01-27T22:30:25.160Z,4.63
2023-01-27T22:32:53.666Z,4.13
2023-01-27T22:35:23.628Z,4.20
2023-01-27T22:37:52.974Z,4.97
2023-01-27T22:40:21.524Z,4.73
2023-01-27T22:42:50.350Z,5.90
2023-01-27T22:45:19.080Z,4.57
2023-01-27T22:47:49.412Z,4.97
2023-01-27T22:50:18.283Z,5.30
2023-01-27T22:52:48.167Z,5.13
2023-01-27T22:55:16.898Z,5.23
2023-01-27T22:57:47.724Z,5.80
2023-01-27T23:00:17.039Z,5.73
2023-01-27T23:02:45.503Z,5.70
2023-01-27T23:05:14.203Z,4.70
2023-01-27T23:07:42.831Z,4.97
2023-01-27T23:10:12.896Z,4.43
2023-01-27T23:12:41.348Z,4.80
2023-01-27T23:15:11.010Z,4.47
2023-01-27T23:17:39.610Z,5.10
2023-01-27T23:20:09.594Z,5.07
2023-01-27T23:22:38.123Z,5.70
2023-01-27T23:25:07.743Z,5.17
2023-01-27T23:27:37.606Z,4.90
2023-01-27T23:30:09.015Z,4.50
2023-01-27T23:32:38.088Z,5.07
2023-01-27T23:35:07.526Z,4.83
2023-01-27T23:37:36.217Z,4.80
2023-01-27T23:40:05.254Z,4.93
2023-01-27T23:42:34.063Z,4.93
2023-01-27T23:45:03.988Z,4.90
2023-01-27T23:47:32.404Z,4.90
2023-01-27T23:50:00.863Z,5.73
2023-01-27T23:52:30.292Z,4.93
2023-01-27T23:54:58.747Z,5.47
2023-01-27T23:57:27.159Z,5.20
2023-01-27T23:59:55.620Z,4.27
